sensor_id;sensor_type;location;lat;lon;timestamp;P1;durP1;ratioP1;P2;durP2;ratioP2
2035;SDS011;23642;42.658;23.350;2022-11-18T00:02:18;73.77;;;67.30;;
2035;SDS011;23642;42.658;23.350;2022-11-18T00:07:53;73.63;;;67.57;;
2035;SDS011;23642;42.658;23.350;2022-11-18T00:10:20;74.03;;;67.50;;
2035;SDS011;23642;42.658;23.350;2022-11-18T00:12:48;71.30;;;65.17;;
2035;SDS011;23642;42.658;23.350;2022-11-18T00:15:33;75.30;;;68.70;;
2035;SDS011;23642;42.658;23.350;2022-11-18T00:17:59;73.03;;;66.43;;
2035;SDS011;23642;42.658;23.350;2022-11-18T00:20:26;73.67;;;67.20;;
2035;SDS011;23642;42.658;23.350;2022-11-18T00:22:53;70.20;;;64.60;;
2035;SDS011;23642;42.658;23.350;2022-11-18T00:25:20;71.50;;;65.90;;
2035;SDS011;23642;42.658;23.350;2022-11-18T00:27:48;68.20;;;62.50;;
2035;SDS011;23642;42.658;23.350;2022-11-18T00:30:15;69.33;;;63.67;;
2035;SDS011;23642;42.658;23.350;2022-11-18T00:32:43;68.37;;;62.80;;
2035;SDS011;23642;42.658;23.350;2022-11-18T00:35:12;65.33;;;60.03;;
2035;SDS011;23642;42.658;23.350;2022-11-18T00:37:39;65.87;;;60.43;;
2035;SDS011;23642;42.658;23.350;2022-11-18T00:40:06;65.17;;;59.80;;
2035;SDS011;23642;42.658;23.350;2022-11-18T00:42:33;66.67;;;61.43;;
2035;SDS011;23642;42.658;23.350;2022-11-18T00:45:19;65.00;;;59.83;;
2035;SDS011;23642;42.658;23.350;2022-11-18T00:47:47;68.63;;;62.63;;
2035;SDS011;23642;42.658;23.350;2022-11-18T00:50:14;66.00;;;61.00;;
2035;SDS011;23642;42.658;23.350;2022-11-18T00:52:41;65.93;;;60.63;;
2035;SDS011;23642;42.658;23.350;2022-11-18T00:55:08;68.27;;;62.23;;
2035;SDS011;23642;42.658;23.350;2022-11-18T00:57:35;67.73;;;62.73;;
2035;SDS011;23642;42.658;23.350;2022-11-18T01:00:02;65.70;;;60.60;;
2035;SDS011;23642;42.658;23.350;2022-11-18T01:02:31;65.90;;;60.70;;
2035;SDS011;23642;42.658;23.350;2022-11-18T01:04:58;63.80;;;58.77;;
2035;SDS011;23642;42.658;23.350;2022-11-18T01:07:24;67.00;;;61.50;;
2035;SDS011;23642;42.658;23.350;2022-11-18T01:09:51;69.63;;;63.07;;
2035;SDS011;23642;42.658;23.350;2022-11-18T01:12:18;67.20;;;62.10;;
2035;SDS011;23642;42.658;23.350;2022-11-18T01:15:03;66.00;;;60.73;;
2035;SDS011;23642;42.658;23.350;2022-11-18T01:17:32;65.43;;;60.10;;
2035;SDS011;23642;42.658;23.350;2022-11-18T01:19:59;67.43;;;61.93;;
2035;SDS011;23642;42.658;23.350;2022-11-18T01:22:28;67.73;;;62.13;;
2035;SDS011;23642;42.658;23.350;2022-11-18T01:24:57;69.83;;;63.93;;
2035;SDS011;23642;42.658;23.350;2022-11-18T01:27:24;72.37;;;66.50;;
2035;SDS011;23642;42.658;23.350;2022-11-18T01:29:51;69.17;;;63.77;;
2035;SDS011;23642;42.658;23.350;2022-11-18T01:32:17;69.57;;;63.80;;
2035;SDS011;23642;42.658;23.350;2022-11-18T01:34:46;64.53;;;59.20;;
2035;SDS011;23642;42.658;23.350;2022-11-18T01:37:13;67.53;;;61.87;;
2035;SDS011;23642;42.658;23.350;2022-11-18T01:39:39;66.67;;;61.07;;
2035;SDS011;23642;42.658;23.350;2022-11-18T01:42:09;68.90;;;62.93;;
2035;SDS011;23642;42.658;23.350;2022-11-18T01:44:56;65.90;;;60.50;;
2035;SDS011;23642;42.658;23.350;2022-11-18T01:47:34;68.47;;;62.63;;
2035;SDS011;23642;42.658;23.350;2022-11-18T01:50:07;69.47;;;63.70;;
2035;SDS011;23642;42.658;23.350;2022-11-18T01:52:35;67.40;;;61.67;;
2035;SDS011;23642;42.658;23.350;2022-11-18T01:55:05;63.20;;;58.20;;
2035;SDS011;23642;42.658;23.350;2022-11-18T01:57:36;65.60;;;59.90;;
2035;SDS011;23642;42.658;23.350;2022-11-18T02:00:03;67.47;;;62.20;;
2035;SDS011;23642;42.658;23.350;2022-11-18T02:02:33;65.77;;;60.67;;
2035;SDS011;23642;42.658;23.350;2022-11-18T02:05:03;66.30;;;60.50;;
2035;SDS011;23642;42.658;23.350;2022-11-18T02:07:33;67.23;;;61.60;;
2035;SDS011;23642;42.658;23.350;2022-11-18T02:10:03;67.47;;;61.80;;
2035;SDS011;23642;42.658;23.350;2022-11-18T02:12:32;66.73;;;61.20;;
2035;SDS011;23642;42.658;23.350;2022-11-18T02:14:59;67.17;;;61.80;;
2035;SDS011;23642;42.658;23.350;2022-11-18T02:17:30;67.73;;;61.70;;
2035;SDS011;23642;42.658;23.350;2022-11-18T02:20:11;69.43;;;63.80;;
2035;SDS011;23642;42.658;23.350;2022-11-18T02:26:14;70.93;;;65.07;;
2035;SDS011;23642;42.658;23.350;2022-11-18T02:29:07;71.83;;;65.63;;
2035;SDS011;23642;42.658;23.350;2022-11-18T02:31:37;69.53;;;64.00;;
2035;SDS011;23642;42.658;23.350;2022-11-18T02:34:13;71.77;;;65.90;;
2035;SDS011;23642;42.658;23.350;2022-11-18T02:36:47;67.77;;;62.37;;
2035;SDS011;23642;42.658;23.350;2022-11-18T02:39:21;72.10;;;66.23;;
2035;SDS011;23642;42.658;23.350;2022-11-18T02:41:50;67.57;;;61.93;;
2035;SDS011;23642;42.658;23.350;2022-11-18T02:44:22;68.17;;;62.57;;
2035;SDS011;23642;42.658;23.350;2022-11-18T02:46:52;68.03;;;62.17;;
2035;SDS011;23642;42.658;23.350;2022-11-18T02:49:24;70.57;;;64.83;;
2035;SDS011;23642;42.658;23.350;2022-11-18T02:51:56;70.57;;;64.57;;
2035;SDS011;23642;42.658;23.350;2022-11-18T02:54:23;66.50;;;61.00;;
2035;SDS011;23642;42.658;23.350;2022-11-18T02:56:52;66.97;;;61.47;;
2035;SDS011;23642;42.658;23.350;2022-11-18T02:59:20;67.83;;;62.23;;
2035;SDS011;23642;42.658;23.350;2022-11-18T03:01:48;71.00;;;65.23;;
2035;SDS011;23642;42.658;23.350;2022-11-18T03:04:15;67.77;;;62.00;;
2035;SDS011;23642;42.658;23.350;2022-11-18T03:06:44;66.60;;;61.10;;
2035;SDS011;23642;42.658;23.350;2022-11-18T03:09:17;64.10;;;58.87;;
2035;SDS011;23642;42.658;23.350;2022-11-18T03:11:50;63.03;;;58.13;;
2035;SDS011;23642;42.658;23.350;2022-11-18T03:14:35;65.17;;;59.53;;
2035;SDS011;23642;42.658;23.350;2022-11-18T03:22:58;65.73;;;60.47;;
2035;SDS011;23642;42.658;23.350;2022-11-18T03:25:33;66.47;;;60.73;;
2035;SDS011;23642;42.658;23.350;2022-11-18T03:28:05;64.20;;;59.03;;
2035;SDS011;23642;42.658;23.350;2022-11-18T03:30:40;62.53;;;57.63;;
2035;SDS011;23642;42.658;23.350;2022-11-18T03:33:13;64.97;;;59.70;;
2035;SDS011;23642;42.658;23.350;2022-11-18T03:35:45;63.27;;;58.13;;
2035;SDS011;23642;42.658;23.350;2022-11-18T03:38:15;61.90;;;56.83;;
2035;SDS011;23642;42.658;23.350;2022-11-18T03:40:54;62.30;;;57.30;;
2035;SDS011;23642;42.658;23.350;2022-11-18T03:43:25;60.27;;;55.20;;
2035;SDS011;23642;42.658;23.350;2022-11-18T03:45:59;63.90;;;58.30;;
2035;SDS011;23642;42.658;23.350;2022-11-18T03:48:34;61.00;;;56.23;;
2035;SDS011;23642;42.658;23.350;2022-11-18T03:51:07;63.67;;;58.57;;
2035;SDS011;23642;42.658;23.350;2022-11-18T03:53:37;63.50;;;58.30;;
2035;SDS011;23642;42.658;23.350;2022-11-18T03:56:08;64.43;;;59.37;;
2035;SDS011;23642;42.658;23.350;2022-11-18T03:58:39;61.40;;;56.40;;
2035;SDS011;23642;42.658;23.350;2022-11-18T04:01:13;63.27;;;58.00;;
2035;SDS011;23642;42.658;23.350;2022-11-18T04:03:45;63.73;;;58.17;;
2035;SDS011;23642;42.658;23.350;2022-11-18T04:06:14;63.23;;;58.10;;
2035;SDS011;23642;42.658;23.350;2022-11-18T04:08:49;63.53;;;58.53;;
2035;SDS011;23642;42.658;23.350;2022-11-18T04:11:22;65.57;;;59.40;;
2035;SDS011;23642;42.658;23.350;2022-11-18T04:14:10;63.93;;;58.63;;
2035;SDS011;23642;42.658;23.350;2022-11-18T04:16:39;66.20;;;59.43;;
2035;SDS011;23642;42.658;23.350;2022-11-18T04:19:08;67.37;;;60.20;;
2035;SDS011;23642;42.658;23.350;2022-11-18T04:21:35;67.20;;;60.47;;
2035;SDS011;23642;42.658;23.350;2022-11-18T04:24:02;103.37;;;65.73;;
2035;SDS011;23642;42.658;23.350;2022-11-18T04:26:29;90.63;;;66.40;;
2035;SDS011;23642;42.658;23.350;2022-11-18T04:28:56;120.37;;;64.37;;
2035;SDS011;23642;42.658;23.350;2022-11-18T04:31:23;107.67;;;65.73;;
2035;SDS011;23642;42.658;23.350;2022-11-18T04:33:50;92.07;;;67.27;;
2035;SDS011;23642;42.658;23.350;2022-11-18T04:36:20;92.63;;;65.93;;
2035;SDS011;23642;42.658;23.350;2022-11-18T04:38:47;114.67;;;64.70;;
2035;SDS011;23642;42.658;23.350;2022-11-18T04:41:13;144.13;;;67.97;;
2035;SDS011;23642;42.658;23.350;2022-11-18T04:43:40;177.83;;;72.13;;
2035;SDS011;23642;42.658;23.350;2022-11-18T04:46:07;145.30;;;70.77;;
2035;SDS011;23642;42.658;23.350;2022-11-18T04:48:37;141.03;;;72.10;;
2035;SDS011;23642;42.658;23.350;2022-11-18T04:51:04;93.10;;;66.00;;
2035;SDS011;23642;42.658;23.350;2022-11-18T04:53:32;152.70;;;71.33;;
2035;SDS011;23642;42.658;23.350;2022-11-18T04:56:03;128.73;;;72.40;;
2035;SDS011;23642;42.658;23.350;2022-11-18T04:58:31;137.23;;;74.33;;
2035;SDS011;23642;42.658;23.350;2022-11-18T05:00:58;173.10;;;78.93;;
2035;SDS011;23642;42.658;23.350;2022-11-18T05:03:25;180.00;;;79.53;;
2035;SDS011;23642;42.658;23.350;2022-11-18T05:05:52;160.60;;;76.20;;
2035;SDS011;23642;42.658;23.350;2022-11-18T05:08:19;145.13;;;82.83;;
2035;SDS011;23642;42.658;23.350;2022-11-18T05:10:47;239.20;;;88.50;;
2035;SDS011;23642;42.658;23.350;2022-11-18T05:13:13;205.07;;;85.83;;
2035;SDS011;23642;42.658;23.350;2022-11-18T05:15:39;179.97;;;83.57;;
2035;SDS011;23642;42.658;23.350;2022-11-18T05:18:09;188.30;;;83.27;;
2035;SDS011;23642;42.658;23.350;2022-11-18T05:20:36;204.23;;;84.87;;
2035;SDS011;23642;42.658;23.350;2022-11-18T05:23:03;215.03;;;82.40;;
2035;SDS011;23642;42.658;23.350;2022-11-18T05:25:30;155.27;;;83.90;;
2035;SDS011;23642;42.658;23.350;2022-11-18T05:27:58;178.10;;;80.33;;
2035;SDS011;23642;42.658;23.350;2022-11-18T05:30:24;106.67;;;73.00;;
2035;SDS011;23642;42.658;23.350;2022-11-18T05:32:51;329.73;;;84.63;;
2035;SDS011;23642;42.658;23.350;2022-11-18T05:35:18;169.00;;;79.30;;
2035;SDS011;23642;42.658;23.350;2022-11-18T05:37:45;157.50;;;78.20;;
2035;SDS011;23642;42.658;23.350;2022-11-18T05:40:11;253.17;;;84.37;;
2035;SDS011;23642;42.658;23.350;2022-11-18T05:42:38;213.93;;;77.50;;
2035;SDS011;23642;42.658;23.350;2022-11-18T05:45:24;106.73;;;78.17;;
2035;SDS011;23642;42.658;23.350;2022-11-18T05:47:51;113.33;;;72.50;;
2035;SDS011;23642;42.658;23.350;2022-11-18T05:50:28;138.83;;;75.80;;
2035;SDS011;23642;42.658;23.350;2022-11-18T05:52:55;132.30;;;72.23;;
2035;SDS011;23642;42.658;23.350;2022-11-18T05:55:22;163.37;;;76.20;;
2035;SDS011;23642;42.658;23.350;2022-11-18T05:57:52;144.90;;;74.70;;
2035;SDS011;23642;42.658;23.350;2022-11-18T06:00:19;123.03;;;72.13;;
2035;SDS011;23642;42.658;23.350;2022-11-18T06:02:47;124.03;;;75.23;;
2035;SDS011;23642;42.658;23.350;2022-11-18T06:05:17;81.33;;;69.43;;
2035;SDS011;23642;42.658;23.350;2022-11-18T06:07:47;88.93;;;70.17;;
2035;SDS011;23642;42.658;23.350;2022-11-18T06:10:24;80.87;;;68.60;;
2035;SDS011;23642;42.658;23.350;2022-11-18T06:12:55;87.43;;;67.20;;
2035;SDS011;23642;42.658;23.350;2022-11-18T06:15:26;130.00;;;70.73;;
2035;SDS011;23642;42.658;23.350;2022-11-18T06:18:00;121.07;;;70.13;;
2035;SDS011;23642;42.658;23.350;2022-11-18T06:20:29;209.87;;;76.70;;
2035;SDS011;23642;42.658;23.350;2022-11-18T06:22:56;151.70;;;69.27;;
2035;SDS011;23642;42.658;23.350;2022-11-18T06:25:25;203.60;;;72.10;;
2035;SDS011;23642;42.658;23.350;2022-11-18T06:27:52;107.73;;;68.30;;
2035;SDS011;23642;42.658;23.350;2022-11-18T06:36:52;172.60;;;68.07;;
2035;SDS011;23642;42.658;23.350;2022-11-18T06:42:33;140.20;;;68.57;;
2035;SDS011;23642;42.658;23.350;2022-11-18T06:45:26;117.80;;;68.30;;
2035;SDS011;23642;42.658;23.350;2022-11-18T06:47:55;138.10;;;69.60;;
2035;SDS011;23642;42.658;23.350;2022-11-18T06:50:25;140.67;;;69.47;;
2035;SDS011;23642;42.658;23.350;2022-11-18T06:52:53;141.50;;;65.80;;
2035;SDS011;23642;42.658;23.350;2022-11-18T06:55:20;174.40;;;70.93;;
2035;SDS011;23642;42.658;23.350;2022-11-18T06:57:49;146.10;;;62.77;;
2035;SDS011;23642;42.658;23.350;2022-11-18T07:00:21;141.57;;;64.10;;
2035;SDS011;23642;42.658;23.350;2022-11-18T07:02:49;152.87;;;66.03;;
2035;SDS011;23642;42.658;23.350;2022-11-18T07:05:17;143.13;;;61.57;;
2035;SDS011;23642;42.658;23.350;2022-11-18T07:07:45;147.50;;;64.87;;
2035;SDS011;23642;42.658;23.350;2022-11-18T07:10:12;150.70;;;63.63;;
2035;SDS011;23642;42.658;23.350;2022-11-18T07:12:42;189.23;;;68.90;;
2035;SDS011;23642;42.658;23.350;2022-11-18T07:15:09;196.13;;;67.70;;
2035;SDS011;23642;42.658;23.350;2022-11-18T07:17:40;120.73;;;62.50;;
2035;SDS011;23642;42.658;23.350;2022-11-18T07:20:10;143.03;;;62.20;;
2035;SDS011;23642;42.658;23.350;2022-11-18T07:22:39;121.33;;;59.67;;
2035;SDS011;23642;42.658;23.350;2022-11-18T07:25:10;153.70;;;61.77;;
2035;SDS011;23642;42.658;23.350;2022-11-18T07:27:38;135.57;;;61.60;;
2035;SDS011;23642;42.658;23.350;2022-11-18T07:30:05;79.97;;;59.83;;
2035;SDS011;23642;42.658;23.350;2022-11-18T07:32:35;85.80;;;60.20;;
2035;SDS011;23642;42.658;23.350;2022-11-18T07:35:02;127.57;;;66.57;;
2035;SDS011;23642;42.658;23.350;2022-11-18T07:37:29;173.70;;;68.23;;
2035;SDS011;23642;42.658;23.350;2022-11-18T07:39:57;87.47;;;65.27;;
2035;SDS011;23642;42.658;23.350;2022-11-18T07:42:25;107.57;;;66.80;;
2035;SDS011;23642;42.658;23.350;2022-11-18T07:44:53;81.43;;;63.17;;
2035;SDS011;23642;42.658;23.350;2022-11-18T07:47:23;109.43;;;65.67;;
2035;SDS011;23642;42.658;23.350;2022-11-18T07:49:49;89.43;;;64.60;;
2035;SDS011;23642;42.658;23.350;2022-11-18T07:52:16;122.83;;;73.07;;
2035;SDS011;23642;42.658;23.350;2022-11-18T07:54:43;139.63;;;70.57;;
2035;SDS011;23642;42.658;23.350;2022-11-18T07:57:10;119.60;;;73.00;;
2035;SDS011;23642;42.658;23.350;2022-11-18T07:59:39;118.27;;;73.80;;
2035;SDS011;23642;42.658;23.350;2022-11-18T08:02:09;129.50;;;74.80;;
2035;SDS011;23642;42.658;23.350;2022-11-18T08:04:41;100.03;;;69.87;;
2035;SDS011;23642;42.658;23.350;2022-11-18T08:07:08;106.83;;;74.63;;
2035;SDS011;23642;42.658;23.350;2022-11-18T08:09:36;114.80;;;74.90;;
2035;SDS011;23642;42.658;23.350;2022-11-18T08:12:03;97.20;;;72.23;;
2035;SDS011;23642;42.658;23.350;2022-11-18T08:14:31;94.43;;;74.07;;
2035;SDS011;23642;42.658;23.350;2022-11-18T08:17:04;109.20;;;75.50;;
2035;SDS011;23642;42.658;23.350;2022-11-18T08:19:47;93.17;;;74.63;;
2035;SDS011;23642;42.658;23.350;2022-11-18T08:22:26;116.30;;;79.77;;
2035;SDS011;23642;42.658;23.350;2022-11-18T08:24:58;104.87;;;80.20;;
2035;SDS011;23642;42.658;23.350;2022-11-18T08:27:26;98.37;;;79.63;;
2035;SDS011;23642;42.658;23.350;2022-11-18T08:29:53;99.67;;;79.27;;
2035;SDS011;23642;42.658;23.350;2022-11-18T08:32:21;96.27;;;78.93;;
2035;SDS011;23642;42.658;23.350;2022-11-18T08:34:51;96.43;;;77.50;;
2035;SDS011;23642;42.658;23.350;2022-11-18T08:37:18;87.00;;;77.50;;
2035;SDS011;23642;42.658;23.350;2022-11-18T08:39:51;110.93;;;76.80;;
2035;SDS011;23642;42.658;23.350;2022-11-18T08:42:35;85.43;;;76.13;;
2035;SDS011;23642;42.658;23.350;2022-11-18T08:45:03;95.97;;;75.87;;
2035;SDS011;23642;42.658;23.350;2022-11-18T08:47:35;82.27;;;73.50;;
2035;SDS011;23642;42.658;23.350;2022-11-18T08:50:11;83.43;;;74.63;;
2035;SDS011;23642;42.658;23.350;2022-11-18T08:52:56;83.87;;;74.83;;
2035;SDS011;23642;42.658;23.350;2022-11-18T08:55:38;86.10;;;75.83;;
2035;SDS011;23642;42.658;23.350;2022-11-18T08:58:10;88.37;;;75.77;;
2035;SDS011;23642;42.658;23.350;2022-11-18T09:00:42;89.77;;;76.50;;
2035;SDS011;23642;42.658;23.350;2022-11-18T09:06:09;96.00;;;79.97;;
2035;SDS011;23642;42.658;23.350;2022-11-18T09:08:48;85.40;;;76.30;;
2035;SDS011;23642;42.658;23.350;2022-11-18T09:11:17;90.40;;;80.60;;
2035;SDS011;23642;42.658;23.350;2022-11-18T09:13:50;88.30;;;78.70;;
2035;SDS011;23642;42.658;23.350;2022-11-18T09:16:21;87.57;;;77.90;;
2035;SDS011;23642;42.658;23.350;2022-11-18T09:36:27;95.63;;;85.40;;
2035;SDS011;23642;42.658;23.350;2022-11-18T09:39:09;106.37;;;88.20;;
2035;SDS011;23642;42.658;23.350;2022-11-18T09:41:53;98.20;;;83.90;;
2035;SDS011;23642;42.658;23.350;2022-11-18T09:44:43;92.07;;;81.33;;
2035;SDS011;23642;42.658;23.350;2022-11-18T09:47:39;90.87;;;80.90;;
2035;SDS011;23642;42.658;23.350;2022-11-18T09:50:10;88.70;;;79.30;;
2035;SDS011;23642;42.658;23.350;2022-11-18T09:52:59;87.17;;;78.03;;
2035;SDS011;23642;42.658;23.350;2022-11-18T09:55:43;88.80;;;78.77;;
2035;SDS011;23642;42.658;23.350;2022-11-18T09:58:19;89.13;;;79.63;;
2035;SDS011;23642;42.658;23.350;2022-11-18T10:01:19;85.40;;;76.70;;
2035;SDS011;23642;42.658;23.350;2022-11-18T10:03:51;86.87;;;77.63;;
2035;SDS011;23642;42.658;23.350;2022-11-18T10:06:23;94.20;;;83.13;;
2035;SDS011;23642;42.658;23.350;2022-11-18T10:09:01;91.43;;;81.60;;
2035;SDS011;23642;42.658;23.350;2022-11-18T10:11:39;86.17;;;77.53;;
2035;SDS011;23642;42.658;23.350;2022-11-18T10:14:26;92.00;;;82.07;;
2035;SDS011;23642;42.658;23.350;2022-11-18T10:17:09;91.83;;;82.07;;
2035;SDS011;23642;42.658;23.350;2022-11-18T10:19:56;86.80;;;77.80;;
2035;SDS011;23642;42.658;23.350;2022-11-18T10:22:51;86.73;;;77.63;;
2035;SDS011;23642;42.658;23.350;2022-11-18T10:25:23;85.87;;;75.30;;
2035;SDS011;23642;42.658;23.350;2022-11-18T10:27:50;90.50;;;80.90;;
2035;SDS011;23642;42.658;23.350;2022-11-18T10:30:18;96.50;;;86.30;;
2035;SDS011;23642;42.658;23.350;2022-11-18T10:32:55;95.17;;;85.10;;
2035;SDS011;23642;42.658;23.350;2022-11-18T10:35:28;94.97;;;84.83;;
2035;SDS011;23642;42.658;23.350;2022-11-18T10:38:57;97.50;;;86.23;;
2035;SDS011;23642;42.658;23.350;2022-11-18T10:41:38;97.43;;;87.60;;
2035;SDS011;23642;42.658;23.350;2022-11-18T10:47:14;97.73;;;88.13;;
2035;SDS011;23642;42.658;23.350;2022-11-18T10:49:46;98.40;;;89.07;;
2035;SDS011;23642;42.658;23.350;2022-11-18T10:52:16;100.67;;;89.70;;
2035;SDS011;23642;42.658;23.350;2022-11-18T10:54:44;102.20;;;92.07;;
2035;SDS011;23642;42.658;23.350;2022-11-18T10:57:28;100.73;;;91.57;;
2035;SDS011;23642;42.658;23.350;2022-11-18T11:00:03;100.43;;;90.43;;
2035;SDS011;23642;42.658;23.350;2022-11-18T11:02:33;101.87;;;92.50;;
2035;SDS011;23642;42.658;23.350;2022-11-18T11:05:18;102.27;;;92.77;;
2035;SDS011;23642;42.658;23.350;2022-11-18T11:07:51;106.33;;;96.33;;
2035;SDS011;23642;42.658;23.350;2022-11-18T11:10:27;106.00;;;96.07;;
2035;SDS011;23642;42.658;23.350;2022-11-18T11:12:58;106.40;;;96.83;;
2035;SDS011;23642;42.658;23.350;2022-11-18T11:15:32;106.43;;;97.63;;
2035;SDS011;23642;42.658;23.350;2022-11-18T11:18:05;107.67;;;97.60;;
2035;SDS011;23642;42.658;23.350;2022-11-18T11:20:55;107.80;;;98.57;;
2035;SDS011;23642;42.658;23.350;2022-11-18T11:23:27;109.97;;;100.70;;
2035;SDS011;23642;42.658;23.350;2022-11-18T11:25:58;106.60;;;97.87;;
2035;SDS011;23642;42.658;23.350;2022-11-18T11:28:36;112.07;;;102.67;;
2035;SDS011;23642;42.658;23.350;2022-11-18T11:31:17;112.10;;;101.63;;
2035;SDS011;23642;42.658;23.350;2022-11-18T11:34:17;113.80;;;104.00;;
2035;SDS011;23642;42.658;23.350;2022-11-18T11:36:59;114.80;;;104.30;;
2035;SDS011;23642;42.658;23.350;2022-11-18T11:39:58;111.67;;;101.90;;
2035;SDS011;23642;42.658;23.350;2022-11-18T11:43:00;109.30;;;100.03;;
2035;SDS011;23642;42.658;23.350;2022-11-18T11:46:00;116.00;;;105.53;;
2035;SDS011;23642;42.658;23.350;2022-11-18T11:48:52;114.70;;;103.90;;
2035;SDS011;23642;42.658;23.350;2022-11-18T11:51:30;116.70;;;106.20;;
2035;SDS011;23642;42.658;23.350;2022-11-18T11:57:04;109.50;;;100.20;;
2035;SDS011;23642;42.658;23.350;2022-11-18T11:59:47;109.73;;;100.53;;
2035;SDS011;23642;42.658;23.350;2022-11-18T12:05:23;104.43;;;95.40;;
2035;SDS011;23642;42.658;23.350;2022-11-18T12:08:00;107.00;;;97.87;;
2035;SDS011;23642;42.658;23.350;2022-11-18T12:13:32;106.70;;;96.93;;
2035;SDS011;23642;42.658;23.350;2022-11-18T12:16:14;102.23;;;94.23;;
2035;SDS011;23642;42.658;23.350;2022-11-18T12:18:57;101.40;;;93.60;;
2035;SDS011;23642;42.658;23.350;2022-11-18T12:24:29;105.13;;;96.30;;
2035;SDS011;23642;42.658;23.350;2022-11-18T12:27:11;104.33;;;95.90;;
2035;SDS011;23642;42.658;23.350;2022-11-18T12:29:50;102.67;;;94.47;;
2035;SDS011;23642;42.658;23.350;2022-11-18T12:38:02;103.37;;;94.80;;
2035;SDS011;23642;42.658;23.350;2022-11-18T12:46:47;102.80;;;94.50;;
2035;SDS011;23642;42.658;23.350;2022-11-18T12:52:53;103.20;;;95.20;;
2035;SDS011;23642;42.658;23.350;2022-11-18T12:55:21;101.53;;;93.57;;
2035;SDS011;23642;42.658;23.350;2022-11-18T12:58:16;103.10;;;95.00;;
2035;SDS011;23642;42.658;23.350;2022-11-18T13:00:48;102.93;;;95.23;;
2035;SDS011;23642;42.658;23.350;2022-11-18T13:03:23;103.70;;;95.27;;
2035;SDS011;23642;42.658;23.350;2022-11-18T13:08:48;100.07;;;92.17;;
2035;SDS011;23642;42.658;23.350;2022-11-18T13:11:32;101.47;;;93.07;;
2035;SDS011;23642;42.658;23.350;2022-11-18T13:14:15;103.00;;;95.00;;
2035;SDS011;23642;42.658;23.350;2022-11-18T13:20:22;101.10;;;93.77;;
2035;SDS011;23642;42.658;23.350;2022-11-18T13:22:52;101.80;;;94.10;;
2035;SDS011;23642;42.658;23.350;2022-11-18T13:29:23;101.10;;;93.70;;
2035;SDS011;23642;42.658;23.350;2022-11-18T13:32:02;100.17;;;93.07;;
2035;SDS011;23642;42.658;23.350;2022-11-18T13:45:26;102.87;;;94.83;;
2035;SDS011;23642;42.658;23.350;2022-11-18T13:47:59;100.30;;;93.13;;
2035;SDS011;23642;42.658;23.350;2022-11-18T13:53:50;102.77;;;94.67;;
2035;SDS011;23642;42.658;23.350;2022-11-18T13:56:20;100.57;;;93.47;;
2035;SDS011;23642;42.658;23.350;2022-11-18T13:59:40;99.20;;;92.40;;
2035;SDS011;23642;42.658;23.350;2022-11-18T14:02:25;99.00;;;91.90;;
2035;SDS011;23642;42.658;23.350;2022-11-18T14:05:27;97.90;;;91.20;;
2035;SDS011;23642;42.658;23.350;2022-11-18T14:08:04;101.73;;;93.40;;
2035;SDS011;23642;42.658;23.350;2022-11-18T14:11:03;97.50;;;91.10;;
2035;SDS011;23642;42.658;23.350;2022-11-18T14:13:32;97.57;;;90.67;;
2035;SDS011;23642;42.658;23.350;2022-11-18T14:16:33;98.20;;;91.50;;
2035;SDS011;23642;42.658;23.350;2022-11-18T14:19:39;100.73;;;93.33;;
2035;SDS011;23642;42.658;23.350;2022-11-18T14:22:20;97.87;;;90.57;;
2035;SDS011;23642;42.658;23.350;2022-11-18T14:24:59;95.73;;;88.80;;
2035;SDS011;23642;42.658;23.350;2022-11-18T14:27:46;95.90;;;89.00;;
2035;SDS011;23642;42.658;23.350;2022-11-18T14:30:28;96.33;;;89.90;;
2035;SDS011;23642;42.658;23.350;2022-11-18T14:33:15;93.83;;;87.73;;
2035;SDS011;23642;42.658;23.350;2022-11-18T14:35:51;96.53;;;88.83;;
2035;SDS011;23642;42.658;23.350;2022-11-18T14:38:21;94.60;;;88.20;;
2035;SDS011;23642;42.658;23.350;2022-11-18T14:41:22;93.20;;;86.83;;
2035;SDS011;23642;42.658;23.350;2022-11-18T14:44:17;93.27;;;87.10;;
2035;SDS011;23642;42.658;23.350;2022-11-18T14:46:58;93.67;;;87.50;;
2035;SDS011;23642;42.658;23.350;2022-11-18T14:49:32;92.70;;;86.70;;
2035;SDS011;23642;42.658;23.350;2022-11-18T14:52:05;95.77;;;88.40;;
2035;SDS011;23642;42.658;23.350;2022-11-18T14:54:46;93.07;;;86.97;;
2035;SDS011;23642;42.658;23.350;2022-11-18T14:57:25;95.40;;;88.63;;
2035;SDS011;23642;42.658;23.350;2022-11-18T14:59:53;94.67;;;88.03;;
2035;SDS011;23642;42.658;23.350;2022-11-18T15:02:25;94.07;;;87.50;;
2035;SDS011;23642;42.658;23.350;2022-11-18T15:04:57;92.07;;;86.00;;
2035;SDS011;23642;42.658;23.350;2022-11-18T15:07:42;91.53;;;85.63;;
2035;SDS011;23642;42.658;23.350;2022-11-18T15:10:12;94.47;;;88.03;;
2035;SDS011;23642;42.658;23.350;2022-11-18T15:12:50;93.63;;;87.43;;
2035;SDS011;23642;42.658;23.350;2022-11-18T15:15:20;93.40;;;87.20;;
2035;SDS011;23642;42.658;23.350;2022-11-18T15:18:12;100.93;;;94.00;;
2035;SDS011;23642;42.658;23.350;2022-11-18T15:20:44;105.00;;;97.50;;
2035;SDS011;23642;42.658;23.350;2022-11-18T15:23:12;105.20;;;97.73;;
2035;SDS011;23642;42.658;23.350;2022-11-18T15:29:01;100.33;;;93.30;;
2035;SDS011;23642;42.658;23.350;2022-11-18T15:31:37;102.30;;;95.20;;
2035;SDS011;23642;42.658;23.350;2022-11-18T15:34:09;99.33;;;92.43;;
2035;SDS011;23642;42.658;23.350;2022-11-18T15:36:47;97.70;;;90.80;;
2035;SDS011;23642;42.658;23.350;2022-11-18T15:39:16;96.30;;;89.50;;
2035;SDS011;23642;42.658;23.350;2022-11-18T15:41:52;94.13;;;87.63;;
2035;SDS011;23642;42.658;23.350;2022-11-18T15:44:56;94.77;;;88.17;;
2035;SDS011;23642;42.658;23.350;2022-11-18T15:47:28;94.30;;;87.80;;
2035;SDS011;23642;42.658;23.350;2022-11-18T15:50:00;94.53;;;87.93;;
2035;SDS011;23642;42.658;23.350;2022-11-18T15:52:46;92.53;;;86.10;;
2035;SDS011;23642;42.658;23.350;2022-11-18T15:55:29;92.27;;;85.77;;
2035;SDS011;23642;42.658;23.350;2022-11-18T15:58:24;92.00;;;85.50;;
2035;SDS011;23642;42.658;23.350;2022-11-18T16:01:57;92.30;;;85.97;;
2035;SDS011;23642;42.658;23.350;2022-11-18T16:05:16;92.50;;;86.10;;
2035;SDS011;23642;42.658;23.350;2022-11-18T16:08:31;89.93;;;83.63;;
2035;SDS011;23642;42.658;23.350;2022-11-18T16:11:18;93.20;;;86.77;;
2035;SDS011;23642;42.658;23.350;2022-11-18T16:14:15;93.73;;;87.37;;
2035;SDS011;23642;42.658;23.350;2022-11-18T16:17:08;91.97;;;85.63;;
2035;SDS011;23642;42.658;23.350;2022-11-18T16:19:56;91.80;;;85.40;;
2035;SDS011;23642;42.658;23.350;2022-11-18T16:22:23;91.50;;;85.33;;
2035;SDS011;23642;42.658;23.350;2022-11-18T16:24:59;91.67;;;85.27;;
2035;SDS011;23642;42.658;23.350;2022-11-18T16:27:31;100.50;;;93.53;;
2035;SDS011;23642;42.658;23.350;2022-11-18T16:30:17;94.07;;;87.40;;
2035;SDS011;23642;42.658;23.350;2022-11-18T16:33:03;97.40;;;90.50;;
2035;SDS011;23642;42.658;23.350;2022-11-18T16:35:44;97.70;;;90.90;;
2035;SDS011;23642;42.658;23.350;2022-11-18T16:38:16;95.67;;;89.17;;
2035;SDS011;23642;42.658;23.350;2022-11-18T16:40:43;95.87;;;89.17;;